DNCA

Details ICAO DNCA (CBQ)
Name CALABAR
Region Nigeria
Timezone Africa/Lagos (UTC+1.0)
Plans Departing 3
Arriving 4
Stats Elevation 210 ft / 64 m (AMSL)
Location 4.976046° 8.347299°
Runways 1
Magnetic Variation 1.271° W
Sunrise 2017-12-16 05:28:35 UTC / 2017-12-16 06:28:35 Local
Sunset 2017-12-16 17:18:39 UTC / 2017-12-16 18:18:39 Local
Advertisement - Login to hide

Runways

ID Width Length Bearing (true) Bearing (mag) Surface Threshold Offset Overrun Length
03 148 ft / 45 m 8,076 ft / 2,462 m 26.78° 28.05° Asphalt 0 ft / 0 m 200 ft / 61 m
21 148 ft / 45 m 8,076 ft / 2,462 m 206.78° 208.05° Asphalt 0 ft / 0 m 200 ft / 61 m

Approach Navaids

Runway Type Ident Frequency Range Bearing (true) Bearing (mag) Slope Elevation
21 Localiser ICL 109.10 MHz 18 nm / 33 km 208.93° 210.20° - 200 ft / 61 m (AMSL)

Map

Weather


0- 5 10 15 20 25 30 35+ Temperature / ° C

Clouds and Precipitation
Forecast for 2017-12-16 18:00 UTC. Updated 13 minutes ago

Ground ~20,000 ft ~40,000 ft Winds

METAR

Not found

TAF

TAF DNCA 160940Z 1612/1718 26005KT 6000 BKN010 TEMPO 1613/1617 TS BKN012 FEW021CB

Frequencies

Tower 124.50 MHz TWR
Warning: Do not use this data for real-world aviation or navigation. No guarantee of current accuracy is given.